KCBE/CBE METAR and TAF weather

Enter ICAO airport designator
Station Type Date Time Source
KCBE METAR 2019/02/23 02:20 UTC NOAA

KCBE 230220Z AUTO 02003KT 10SM CLR 02/M02 A3046 RMK AO2 T00191018


Station Type Date Time Source
KCBE Decoded METAR 2019/02/23 02:20 UTC NOAA

Cumberland, Greater Cumberland Regional Airport, MD, United States (KCBE) 39-36-55N 078-45-39W
Feb 22, 2019 - 09:20 PM EST / 2019.02.23 0220 UTC
Wind: from the NNE (020 degrees) at 3 MPH (3 KT):0
Visibility: 10 mile(s):0
Sky conditions: clear
Temperature: 35.4 F (1.9 C)
Dew Point: 28.8 F (-1.8 C)
Relative Humidity: 76%
Pressure (altimeter): 30.46 in. Hg (1031 hPa)
ob: KCBE 230220Z AUTO 02003KT 10SM CLR 02/M02 A3046 RMK AO2 T00191018
cycle: 2

Station Type Date Time Source
KCBE TAF UTC NOAA

Error!


Example: see airport list